Laughlin, Nevada
Current Conditions -  °F | °C
As of 7:15 AM on Saturday 20 Dec 2014 (Local Time) from KIFP Reporting Station
Clear Clear  
Wind Chill: 39°   Ceiling: Unl
Heat Index: 43°   Visibility: 10mi
Dew Point: 41°   Wind: 7mph
Humidity: 93%   Direction: 210°SSW
Pressure: 30.17"   Gusts: NA
Location:  35.15°N, 114.63°W
Report Text: KIFP 201515Z AUTO 21006KT 10SM CLR 06/05 A3017 RMK AO2
Loading
Personal Weather Stations






























Interactive Weather Map New forecast layout! Learn more

10-Day Weather Forecast

Advertisements
Track Severe Weather on mobile